sensor_id;sensor_type;location;lat;lon;timestamp;temperature;humidity
37518;DHT22;23366;52.498;13.446;2023-08-08T00:01:36;15.40;99.90
37518;DHT22;23366;52.498;13.446;2023-08-08T00:04:01;15.30;99.90
37518;DHT22;23366;52.498;13.446;2023-08-08T00:06:27;15.40;99.90
37518;DHT22;23366;52.498;13.446;2023-08-08T00:08:52;15.30;99.90
37518;DHT22;23366;52.498;13.446;2023-08-08T00:11:18;15.30;99.90
37518;DHT22;23366;52.498;13.446;2023-08-08T00:13:43;15.20;99.90
37518;DHT22;23366;52.498;13.446;2023-08-08T00:16:09;15.20;99.90
37518;DHT22;23366;52.498;13.446;2023-08-08T00:18:35;15.20;99.90
37518;DHT22;23366;52.498;13.446;2023-08-08T00:21:00;15.10;99.90
37518;DHT22;23366;52.498;13.446;2023-08-08T00:23:26;15.10;99.90
37518;DHT22;23366;52.498;13.446;2023-08-08T00:25:51;15.10;99.90
37518;DHT22;23366;52.498;13.446;2023-08-08T00:28:18;15.00;99.90
37518;DHT22;23366;52.498;13.446;2023-08-08T00:30:43;15.00;99.90
37518;DHT22;23366;52.498;13.446;2023-08-08T00:33:09;15.00;99.90
37518;DHT22;23366;52.498;13.446;2023-08-08T00:35:34;14.90;99.90
37518;DHT22;23366;52.498;13.446;2023-08-08T00:38:00;14.90;99.90
37518;DHT22;23366;52.498;13.446;2023-08-08T00:40:25;14.90;99.90
37518;DHT22;23366;52.498;13.446;2023-08-08T00:42:51;14.90;99.90
37518;DHT22;23366;52.498;13.446;2023-08-08T00:45:16;14.90;99.90
37518;DHT22;23366;52.498;13.446;2023-08-08T00:47:42;14.80;99.90
37518;DHT22;23366;52.498;13.446;2023-08-08T00:50:08;14.80;99.90
37518;DHT22;23366;52.498;13.446;2023-08-08T00:52:35;14.80;99.90
37518;DHT22;23366;52.498;13.446;2023-08-08T00:55:02;14.80;99.90
37518;DHT22;23366;52.498;13.446;2023-08-08T00:57:28;14.80;99.90
37518;DHT22;23366;52.498;13.446;2023-08-08T00:59:54;14.80;99.90
37518;DHT22;23366;52.498;13.446;2023-08-08T01:02:19;14.70;99.90
37518;DHT22;23366;52.498;13.446;2023-08-08T01:04:45;14.70;99.90
37518;DHT22;23366;52.498;13.446;2023-08-08T01:07:25;14.70;99.90
37518;DHT22;23366;52.498;13.446;2023-08-08T01:10:03;14.60;99.90
37518;DHT22;23366;52.498;13.446;2023-08-08T01:12:40;14.60;99.90
37518;DHT22;23366;52.498;13.446;2023-08-08T01:15:07;14.60;99.90
37518;DHT22;23366;52.498;13.446;2023-08-08T01:17:35;14.50;99.90
37518;DHT22;23366;52.498;13.446;2023-08-08T01:20:03;14.50;99.90
37518;DHT22;23366;52.498;13.446;2023-08-08T01:23:01;14.50;99.90
37518;DHT22;23366;52.498;13.446;2023-08-08T01:25:29;14.50;99.90
37518;DHT22;23366;52.498;13.446;2023-08-08T01:27:55;14.50;99.90
37518;DHT22;23366;52.498;13.446;2023-08-08T01:30:20;14.50;99.90
37518;DHT22;23366;52.498;13.446;2023-08-08T01:32:46;14.50;99.90
37518;DHT22;23366;52.498;13.446;2023-08-08T01:35:11;14.40;99.90
37518;DHT22;23366;52.498;13.446;2023-08-08T01:37:44;14.40;99.90
37518;DHT22;23366;52.498;13.446;2023-08-08T01:40:12;14.40;99.90
37518;DHT22;23366;52.498;13.446;2023-08-08T01:42:40;14.30;99.90
37518;DHT22;23366;52.498;13.446;2023-08-08T01:45:07;14.40;99.90
37518;DHT22;23366;52.498;13.446;2023-08-08T01:47:33;14.30;99.90
37518;DHT22;23366;52.498;13.446;2023-08-08T01:49:59;14.30;99.90
37518;DHT22;23366;52.498;13.446;2023-08-08T01:52:24;14.30;99.90
37518;DHT22;23366;52.498;13.446;2023-08-08T01:54:50;14.30;99.90
37518;DHT22;23366;52.498;13.446;2023-08-08T01:57:15;14.30;99.90
37518;DHT22;23366;52.498;13.446;2023-08-08T01:59:41;14.30;99.90
37518;DHT22;23366;52.498;13.446;2023-08-08T02:02:06;14.30;99.90
37518;DHT22;23366;52.498;13.446;2023-08-08T02:04:32;14.30;99.90
37518;DHT22;23366;52.498;13.446;2023-08-08T02:06:57;14.40;99.90
37518;DHT22;23366;52.498;13.446;2023-08-08T02:09:22;14.40;99.90
37518;DHT22;23366;52.498;13.446;2023-08-08T02:11:48;14.40;99.90
37518;DHT22;23366;52.498;13.446;2023-08-08T02:14:13;14.40;99.90
37518;DHT22;23366;52.498;13.446;2023-08-08T02:16:39;14.40;99.90
37518;DHT22;23366;52.498;13.446;2023-08-08T02:19:05;14.50;99.90
37518;DHT22;23366;52.498;13.446;2023-08-08T02:21:30;14.40;99.90
37518;DHT22;23366;52.498;13.446;2023-08-08T02:23:56;14.40;99.90
37518;DHT22;23366;52.498;13.446;2023-08-08T02:26:21;14.30;99.90
37518;DHT22;23366;52.498;13.446;2023-08-08T02:28:46;14.30;99.90
37518;DHT22;23366;52.498;13.446;2023-08-08T02:31:12;14.30;99.90
37518;DHT22;23366;52.498;13.446;2023-08-08T02:33:37;14.30;99.90
37518;DHT22;23366;52.498;13.446;2023-08-08T02:36:03;14.40;99.90
37518;DHT22;23366;52.498;13.446;2023-08-08T02:38:29;14.40;99.90
37518;DHT22;23366;52.498;13.446;2023-08-08T02:40:55;14.40;99.90
37518;DHT22;23366;52.498;13.446;2023-08-08T02:43:20;14.40;99.90
37518;DHT22;23366;52.498;13.446;2023-08-08T02:45:45;14.40;99.90
37518;DHT22;23366;52.498;13.446;2023-08-08T02:48:11;14.40;99.90
37518;DHT22;23366;52.498;13.446;2023-08-08T02:50:36;14.40;99.90
37518;DHT22;23366;52.498;13.446;2023-08-08T02:53:02;14.30;99.90
37518;DHT22;23366;52.498;13.446;2023-08-08T02:55:27;14.30;99.90
37518;DHT22;23366;52.498;13.446;2023-08-08T02:57:53;14.20;99.90
37518;DHT22;23366;52.498;13.446;2023-08-08T03:00:18;14.20;99.90
37518;DHT22;23366;52.498;13.446;2023-08-08T03:02:44;14.20;99.90
37518;DHT22;23366;52.498;13.446;2023-08-08T03:05:09;14.20;99.90
37518;DHT22;23366;52.498;13.446;2023-08-08T03:07:35;14.10;99.90
37518;DHT22;23366;52.498;13.446;2023-08-08T03:10:00;14.10;99.90
37518;DHT22;23366;52.498;13.446;2023-08-08T03:12:26;14.00;99.90
37518;DHT22;23366;52.498;13.446;2023-08-08T03:14:51;14.10;99.90
37518;DHT22;23366;52.498;13.446;2023-08-08T03:17:17;14.00;99.90
37518;DHT22;23366;52.498;13.446;2023-08-08T03:19:43;14.10;99.90
37518;DHT22;23366;52.498;13.446;2023-08-08T03:22:08;14.00;99.90
37518;DHT22;23366;52.498;13.446;2023-08-08T03:24:34;14.00;99.90
37518;DHT22;23366;52.498;13.446;2023-08-08T03:26:59;14.00;99.90
37518;DHT22;23366;52.498;13.446;2023-08-08T03:29:24;13.90;99.90
37518;DHT22;23366;52.498;13.446;2023-08-08T03:31:50;13.90;99.90
37518;DHT22;23366;52.498;13.446;2023-08-08T03:34:15;13.90;99.90
37518;DHT22;23366;52.498;13.446;2023-08-08T03:36:42;14.00;99.90
37518;DHT22;23366;52.498;13.446;2023-08-08T03:39:07;14.00;99.90
37518;DHT22;23366;52.498;13.446;2023-08-08T03:41:33;14.00;99.90
37518;DHT22;23366;52.498;13.446;2023-08-08T03:43:59;13.90;99.90
37518;DHT22;23366;52.498;13.446;2023-08-08T03:46:24;13.90;99.90
37518;DHT22;23366;52.498;13.446;2023-08-08T03:48:50;13.90;99.90
37518;DHT22;23366;52.498;13.446;2023-08-08T03:51:15;14.00;99.90
37518;DHT22;23366;52.498;13.446;2023-08-08T03:53:40;13.90;99.90
37518;DHT22;23366;52.498;13.446;2023-08-08T03:56:06;14.00;99.90
37518;DHT22;23366;52.498;13.446;2023-08-08T03:58:32;14.00;99.90
37518;DHT22;23366;52.498;13.446;2023-08-08T04:00:58;14.00;99.90
37518;DHT22;23366;52.498;13.446;2023-08-08T04:03:23;14.10;99.90
37518;DHT22;23366;52.498;13.446;2023-08-08T04:05:49;14.10;99.90
37518;DHT22;23366;52.498;13.446;2023-08-08T04:08:15;14.20;99.90
37518;DHT22;23366;52.498;13.446;2023-08-08T04:10:41;14.30;99.90
37518;DHT22;23366;52.498;13.446;2023-08-08T04:13:07;14.30;99.90
37518;DHT22;23366;52.498;13.446;2023-08-08T04:15:32;14.40;99.90
37518;DHT22;23366;52.498;13.446;2023-08-08T04:17:57;14.50;99.90
37518;DHT22;23366;52.498;13.446;2023-08-08T04:20:23;14.50;99.90
37518;DHT22;23366;52.498;13.446;2023-08-08T04:22:49;14.50;99.90
37518;DHT22;23366;52.498;13.446;2023-08-08T04:25:15;14.60;99.90
37518;DHT22;23366;52.498;13.446;2023-08-08T04:27:40;14.70;99.90
37518;DHT22;23366;52.498;13.446;2023-08-08T04:30:07;14.80;99.90
37518;DHT22;23366;52.498;13.446;2023-08-08T04:32:32;14.70;99.90
37518;DHT22;23366;52.498;13.446;2023-08-08T04:34:58;14.80;99.90
37518;DHT22;23366;52.498;13.446;2023-08-08T04:37:23;14.90;99.90
37518;DHT22;23366;52.498;13.446;2023-08-08T04:39:49;15.00;99.90
37518;DHT22;23366;52.498;13.446;2023-08-08T04:42:14;15.10;99.90
37518;DHT22;23366;52.498;13.446;2023-08-08T04:44:40;15.30;99.90
37518;DHT22;23366;52.498;13.446;2023-08-08T04:47:05;15.40;99.90
37518;DHT22;23366;52.498;13.446;2023-08-08T04:49:31;15.60;99.90
37518;DHT22;23366;52.498;13.446;2023-08-08T04:51:56;15.80;99.90
37518;DHT22;23366;52.498;13.446;2023-08-08T04:54:21;16.10;99.90
37518;DHT22;23366;52.498;13.446;2023-08-08T04:56:47;16.40;99.90
37518;DHT22;23366;52.498;13.446;2023-08-08T04:59:12;16.70;99.90
37518;DHT22;23366;52.498;13.446;2023-08-08T05:01:38;17.00;99.90
37518;DHT22;23366;52.498;13.446;2023-08-08T05:04:03;17.20;99.90
37518;DHT22;23366;52.498;13.446;2023-08-08T05:06:29;17.70;99.90
37518;DHT22;23366;52.498;13.446;2023-08-08T05:08:54;18.60;99.90
37518;DHT22;23366;52.498;13.446;2023-08-08T05:11:22;19.40;99.90
37518;DHT22;23366;52.498;13.446;2023-08-08T05:13:47;19.70;99.90
37518;DHT22;23366;52.498;13.446;2023-08-08T05:16:13;19.90;99.90
37518;DHT22;23366;52.498;13.446;2023-08-08T05:18:38;20.00;99.90
37518;DHT22;23366;52.498;13.446;2023-08-08T05:21:04;19.90;99.90
37518;DHT22;23366;52.498;13.446;2023-08-08T05:23:29;19.50;99.90
37518;DHT22;23366;52.498;13.446;2023-08-08T05:25:54;19.10;99.90
37518;DHT22;23366;52.498;13.446;2023-08-08T05:28:20;18.90;99.90
37518;DHT22;23366;52.498;13.446;2023-08-08T05:30:46;18.70;99.90
37518;DHT22;23366;52.498;13.446;2023-08-08T05:33:11;18.50;99.90
37518;DHT22;23366;52.498;13.446;2023-08-08T05:35:37;18.30;99.90
37518;DHT22;23366;52.498;13.446;2023-08-08T05:38:02;18.30;99.90
37518;DHT22;23366;52.498;13.446;2023-08-08T05:40:28;18.40;99.90
37518;DHT22;23366;52.498;13.446;2023-08-08T05:42:54;18.80;99.90
37518;DHT22;23366;52.498;13.446;2023-08-08T05:45:19;19.50;99.90
37518;DHT22;23366;52.498;13.446;2023-08-08T05:47:45;20.00;99.90
37518;DHT22;23366;52.498;13.446;2023-08-08T05:50:10;20.40;99.90
37518;DHT22;23366;52.498;13.446;2023-08-08T05:52:36;21.10;99.40
37518;DHT22;23366;52.498;13.446;2023-08-08T05:55:01;21.50;97.90
37518;DHT22;23366;52.498;13.446;2023-08-08T05:57:27;21.40;97.60
37518;DHT22;23366;52.498;13.446;2023-08-08T05:59:52;21.00;98.00
37518;DHT22;23366;52.498;13.446;2023-08-08T06:02:18;20.40;98.30
37518;DHT22;23366;52.498;13.446;2023-08-08T06:04:43;19.80;99.30
37518;DHT22;23366;52.498;13.446;2023-08-08T06:07:09;19.30;99.90
37518;DHT22;23366;52.498;13.446;2023-08-08T06:09:35;19.00;99.90
37518;DHT22;23366;52.498;13.446;2023-08-08T06:12:02;19.10;99.90
37518;DHT22;23366;52.498;13.446;2023-08-08T06:14:28;19.50;99.90
37518;DHT22;23366;52.498;13.446;2023-08-08T06:16:54;20.00;99.90
37518;DHT22;23366;52.498;13.446;2023-08-08T06:19:19;20.30;99.60
37518;DHT22;23366;52.498;13.446;2023-08-08T06:21:45;20.20;99.70
37518;DHT22;23366;52.498;13.446;2023-08-08T06:24:11;20.50;99.80
37518;DHT22;23366;52.498;13.446;2023-08-08T06:26:36;20.50;99.20
37518;DHT22;23366;52.498;13.446;2023-08-08T06:29:02;20.50;99.30
37518;DHT22;23366;52.498;13.446;2023-08-08T06:31:27;20.30;99.30
37518;DHT22;23366;52.498;13.446;2023-08-08T06:33:53;20.20;99.60
37518;DHT22;23366;52.498;13.446;2023-08-08T06:36:19;20.10;99.70
37518;DHT22;23366;52.498;13.446;2023-08-08T06:38:44;20.10;99.90
37518;DHT22;23366;52.498;13.446;2023-08-08T06:41:10;20.00;99.90
37518;DHT22;23366;52.498;13.446;2023-08-08T06:43:35;20.00;99.90
37518;DHT22;23366;52.498;13.446;2023-08-08T06:46:01;19.70;99.90
37518;DHT22;23366;52.498;13.446;2023-08-08T06:48:26;19.50;99.90
37518;DHT22;23366;52.498;13.446;2023-08-08T06:50:52;19.30;99.90
37518;DHT22;23366;52.498;13.446;2023-08-08T06:53:18;19.10;99.90
37518;DHT22;23366;52.498;13.446;2023-08-08T06:55:43;18.90;99.90
37518;DHT22;23366;52.498;13.446;2023-08-08T06:58:09;18.80;99.90
37518;DHT22;23366;52.498;13.446;2023-08-08T07:00:34;18.70;99.90
37518;DHT22;23366;52.498;13.446;2023-08-08T07:03:00;18.60;99.90
37518;DHT22;23366;52.498;13.446;2023-08-08T07:05:25;18.80;99.90
37518;DHT22;23366;52.498;13.446;2023-08-08T07:07:51;18.90;99.90
37518;DHT22;23366;52.498;13.446;2023-08-08T07:10:17;19.10;99.90
37518;DHT22;23366;52.498;13.446;2023-08-08T07:12:42;19.60;99.90
37518;DHT22;23366;52.498;13.446;2023-08-08T07:15:09;20.40;99.90
37518;DHT22;23366;52.498;13.446;2023-08-08T07:17:34;21.10;99.50
37518;DHT22;23366;52.498;13.446;2023-08-08T07:20:00;21.90;98.20
37518;DHT22;23366;52.498;13.446;2023-08-08T07:22:26;22.70;97.00
37518;DHT22;23366;52.498;13.446;2023-08-08T07:24:51;22.90;96.00
37518;DHT22;23366;52.498;13.446;2023-08-08T07:27:17;23.80;95.10
37518;DHT22;23366;52.498;13.446;2023-08-08T07:29:43;24.70;93.70
37518;DHT22;23366;52.498;13.446;2023-08-08T07:32:08;25.30;92.50
37518;DHT22;23366;52.498;13.446;2023-08-08T07:34:34;25.30;91.60
37518;DHT22;23366;52.498;13.446;2023-08-08T07:37:00;25.10;91.10
37518;DHT22;23366;52.498;13.446;2023-08-08T07:39:25;24.70;91.30
37518;DHT22;23366;52.498;13.446;2023-08-08T07:41:51;24.60;91.40
37518;DHT22;23366;52.498;13.446;2023-08-08T07:44:17;24.90;90.90
37518;DHT22;23366;52.498;13.446;2023-08-08T07:46:42;26.50;89.50
37518;DHT22;23366;52.498;13.446;2023-08-08T07:49:08;28.10;85.10
37518;DHT22;23366;52.498;13.446;2023-08-08T07:51:35;28.50;81.90
37518;DHT22;23366;52.498;13.446;2023-08-08T07:54:00;28.20;80.10
37518;DHT22;23366;52.498;13.446;2023-08-08T07:56:26;27.80;80.30
37518;DHT22;23366;52.498;13.446;2023-08-08T07:58:51;27.00;80.00
37518;DHT22;23366;52.498;13.446;2023-08-08T08:01:17;26.20;81.80
37518;DHT22;23366;52.498;13.446;2023-08-08T08:03:44;25.60;84.00
37518;DHT22;23366;52.498;13.446;2023-08-08T08:06:09;24.90;85.60
37518;DHT22;23366;52.498;13.446;2023-08-08T08:08:35;24.20;86.70
37518;DHT22;23366;52.498;13.446;2023-08-08T08:11:02;23.40;89.30
37518;DHT22;23366;52.498;13.446;2023-08-08T08:13:27;23.10;90.60
37518;DHT22;23366;52.498;13.446;2023-08-08T08:15:53;23.30;90.90
37518;DHT22;23366;52.498;13.446;2023-08-08T08:18:18;23.80;90.10
37518;DHT22;23366;52.498;13.446;2023-08-08T08:20:45;24.30;89.60
37518;DHT22;23366;52.498;13.446;2023-08-08T08:23:10;24.60;88.30
37518;DHT22;23366;52.498;13.446;2023-08-08T08:25:36;25.00;88.40
37518;DHT22;23366;52.498;13.446;2023-08-08T08:28:02;25.70;86.70
37518;DHT22;23366;52.498;13.446;2023-08-08T08:30:27;26.30;83.90
37518;DHT22;23366;52.498;13.446;2023-08-08T08:32:53;27.20;82.90
37518;DHT22;23366;52.498;13.446;2023-08-08T08:35:18;27.80;80.00
37518;DHT22;23366;52.498;13.446;2023-08-08T08:37:44;28.30;78.50
37518;DHT22;23366;52.498;13.446;2023-08-08T08:40:10;28.20;77.10
37518;DHT22;23366;52.498;13.446;2023-08-08T08:42:39;28.20;77.20
37518;DHT22;23366;52.498;13.446;2023-08-08T08:45:06;28.00;77.70
37518;DHT22;23366;52.498;13.446;2023-08-08T08:47:36;27.90;77.20
37518;DHT22;23366;52.498;13.446;2023-08-08T08:50:02;27.70;77.00
37518;DHT22;23366;52.498;13.446;2023-08-08T08:52:29;27.10;77.40
37518;DHT22;23366;52.498;13.446;2023-08-08T08:54:54;26.90;78.40
37518;DHT22;23366;52.498;13.446;2023-08-08T08:57:54;27.00;78.80
37518;DHT22;23366;52.498;13.446;2023-08-08T09:00:20;27.80;78.50
37518;DHT22;23366;52.498;13.446;2023-08-08T09:02:46;28.40;76.70
37518;DHT22;23366;52.498;13.446;2023-08-08T09:05:12;29.00;74.90
37518;DHT22;23366;52.498;13.446;2023-08-08T09:07:38;29.00;74.20
37518;DHT22;23366;52.498;13.446;2023-08-08T09:10:04;29.10;74.20
37518;DHT22;23366;52.498;13.446;2023-08-08T09:12:31;29.60;72.30
37518;DHT22;23366;52.498;13.446;2023-08-08T09:14:57;29.90;71.60
37518;DHT22;23366;52.498;13.446;2023-08-08T09:17:25;29.80;71.60
37518;DHT22;23366;52.498;13.446;2023-08-08T09:19:56;29.70;71.70
37518;DHT22;23366;52.498;13.446;2023-08-08T09:22:23;30.00;70.70
37518;DHT22;23366;52.498;13.446;2023-08-08T09:24:50;30.00;71.00
37518;DHT22;23366;52.498;13.446;2023-08-08T09:27:16;29.70;71.50
37518;DHT22;23366;52.498;13.446;2023-08-08T09:29:42;29.10;71.30
37518;DHT22;23366;52.498;13.446;2023-08-08T09:32:08;28.50;71.70
37518;DHT22;23366;52.498;13.446;2023-08-08T09:34:34;28.10;71.30
37518;DHT22;23366;52.498;13.446;2023-08-08T09:37:00;28.20;73.00
37518;DHT22;23366;52.498;13.446;2023-08-08T09:39:26;28.40;72.00
37518;DHT22;23366;52.498;13.446;2023-08-08T09:41:51;27.90;72.10
37518;DHT22;23366;52.498;13.446;2023-08-08T09:44:17;27.90;73.10
37518;DHT22;23366;52.498;13.446;2023-08-08T09:46:43;27.90;73.40
37518;DHT22;23366;52.498;13.446;2023-08-08T09:49:10;27.80;73.70
37518;DHT22;23366;52.498;13.446;2023-08-08T09:51:37;27.40;73.10
37518;DHT22;23366;52.498;13.446;2023-08-08T09:54:04;27.10;74.00
37518;DHT22;23366;52.498;13.446;2023-08-08T09:56:33;26.90;74.60
37518;DHT22;23366;52.498;13.446;2023-08-08T09:58:59;26.60;74.70
37518;DHT22;23366;52.498;13.446;2023-08-08T10:01:26;26.20;74.40
37518;DHT22;23366;52.498;13.446;2023-08-08T10:03:52;25.90;75.20
37518;DHT22;23366;52.498;13.446;2023-08-08T10:06:18;25.30;75.70
37518;DHT22;23366;52.498;13.446;2023-08-08T10:08:45;24.60;79.20
37518;DHT22;23366;52.498;13.446;2023-08-08T10:11:11;23.60;89.50
37518;DHT22;23366;52.498;13.446;2023-08-08T10:13:36;22.90;91.30
37518;DHT22;23366;52.498;13.446;2023-08-08T10:16:08;22.30;92.20
37518;DHT22;23366;52.498;13.446;2023-08-08T10:18:34;22.00;93.90
37518;DHT22;23366;52.498;13.446;2023-08-08T10:21:00;22.00;94.00
37518;DHT22;23366;52.498;13.446;2023-08-08T10:23:38;22.00;94.90
37518;DHT22;23366;52.498;13.446;2023-08-08T10:26:04;22.20;94.30
37518;DHT22;23366;52.498;13.446;2023-08-08T10:28:32;22.40;94.10
37518;DHT22;23366;52.498;13.446;2023-08-08T10:31:00;22.40;93.40
37518;DHT22;23366;52.498;13.446;2023-08-08T10:33:40;22.20;92.30
37518;DHT22;23366;52.498;13.446;2023-08-08T10:36:07;22.20;92.80
37518;DHT22;23366;52.498;13.446;2023-08-08T10:38:43;22.30;92.10
37518;DHT22;23366;52.498;13.446;2023-08-08T10:41:11;22.60;91.80
37518;DHT22;23366;52.498;13.446;2023-08-08T10:43:37;22.70;90.60
37518;DHT22;23366;52.498;13.446;2023-08-08T10:46:03;22.70;90.40
37518;DHT22;23366;52.498;13.446;2023-08-08T10:48:29;22.70;89.80
37518;DHT22;23366;52.498;13.446;2023-08-08T10:50:57;22.60;88.00
37518;DHT22;23366;52.498;13.446;2023-08-08T10:53:27;22.50;87.20
37518;DHT22;23366;52.498;13.446;2023-08-08T10:56:03;22.30;86.70
37518;DHT22;23366;52.498;13.446;2023-08-08T10:58:40;22.00;91.50
37518;DHT22;23366;52.498;13.446;2023-08-08T11:01:06;21.90;94.80
37518;DHT22;23366;52.498;13.446;2023-08-08T11:03:37;21.50;95.50
37518;DHT22;23366;52.498;13.446;2023-08-08T11:06:04;21.50;97.20
37518;DHT22;23366;52.498;13.446;2023-08-08T11:08:31;21.50;95.80
37518;DHT22;23366;52.498;13.446;2023-08-08T11:10:57;21.70;95.90
37518;DHT22;23366;52.498;13.446;2023-08-08T11:13:23;21.90;95.20
37518;DHT22;23366;52.498;13.446;2023-08-08T11:15:49;22.00;94.40
37518;DHT22;23366;52.498;13.446;2023-08-08T11:18:14;22.10;93.60
37518;DHT22;23366;52.498;13.446;2023-08-08T11:20:40;22.20;92.90
37518;DHT22;23366;52.498;13.446;2023-08-08T11:23:06;22.20;91.90
37518;DHT22;23366;52.498;13.446;2023-08-08T11:25:35;22.20;91.50
37518;DHT22;23366;52.498;13.446;2023-08-08T11:28:01;22.00;90.30
37518;DHT22;23366;52.498;13.446;2023-08-08T11:30:34;21.90;91.30
37518;DHT22;23366;52.498;13.446;2023-08-08T11:33:00;21.90;94.50
37518;DHT22;23366;52.498;13.446;2023-08-08T11:35:26;21.50;96.10
37518;DHT22;23366;52.498;13.446;2023-08-08T11:37:53;21.20;96.40
37518;DHT22;23366;52.498;13.446;2023-08-08T11:40:20;21.10;96.00
37518;DHT22;23366;52.498;13.446;2023-08-08T11:42:46;21.00;95.40
37518;DHT22;23366;52.498;13.446;2023-08-08T11:45:12;20.90;95.30
37518;DHT22;23366;52.498;13.446;2023-08-08T11:47:39;20.80;95.90
37518;DHT22;23366;52.498;13.446;2023-08-08T11:50:07;20.60;95.70
37518;DHT22;23366;52.498;13.446;2023-08-08T11:52:35;20.60;97.50
37518;DHT22;23366;52.498;13.446;2023-08-08T11:55:00;20.50;96.00
37518;DHT22;23366;52.498;13.446;2023-08-08T11:57:26;20.60;97.20
37518;DHT22;23366;52.498;13.446;2023-08-08T11:59:56;20.80;96.50
37518;DHT22;23366;52.498;13.446;2023-08-08T12:02:23;21.00;95.10
37518;DHT22;23366;52.498;13.446;2023-08-08T12:04:48;21.10;94.80
37518;DHT22;23366;52.498;13.446;2023-08-08T12:07:14;21.00;94.10
37518;DHT22;23366;52.498;13.446;2023-08-08T12:09:40;21.10;95.00
37518;DHT22;23366;52.498;13.446;2023-08-08T12:12:05;21.20;94.30
37518;DHT22;23366;52.498;13.446;2023-08-08T12:14:42;21.20;94.60
37518;DHT22;23366;52.498;13.446;2023-08-08T12:17:09;21.20;94.50
37518;DHT22;23366;52.498;13.446;2023-08-08T12:19:34;21.20;94.40
37518;DHT22;23366;52.498;13.446;2023-08-08T12:22:00;21.20;94.30
37518;DHT22;23366;52.498;13.446;2023-08-08T12:24:25;21.00;94.10
37518;DHT22;23366;52.498;13.446;2023-08-08T12:26:51;21.00;94.10
37518;DHT22;23366;52.498;13.446;2023-08-08T12:29:16;21.00;94.10
37518;DHT22;23366;52.498;13.446;2023-08-08T12:31:42;20.90;93.20
37518;DHT22;23366;52.498;13.446;2023-08-08T12:34:08;20.90;93.10
37518;DHT22;23366;52.498;13.446;2023-08-08T12:36:33;21.00;93.10
37518;DHT22;23366;52.498;13.446;2023-08-08T12:38:59;20.90;92.40
37518;DHT22;23366;52.498;13.446;2023-08-08T12:41:24;21.00;92.70
37518;DHT22;23366;52.498;13.446;2023-08-08T12:43:50;21.00;93.10
37518;DHT22;23366;52.498;13.446;2023-08-08T12:46:16;20.80;93.10
37518;DHT22;23366;52.498;13.446;2023-08-08T12:48:57;20.70;94.50
37518;DHT22;23366;52.498;13.446;2023-08-08T12:51:34;20.80;94.80
37518;DHT22;23366;52.498;13.446;2023-08-08T12:54:06;20.90;94.40
37518;DHT22;23366;52.498;13.446;2023-08-08T12:56:31;21.00;94.70
37518;DHT22;23366;52.498;13.446;2023-08-08T12:58:56;21.10;94.20
37518;DHT22;23366;52.498;13.446;2023-08-08T13:01:22;21.10;94.10
37518;DHT22;23366;52.498;13.446;2023-08-08T13:03:49;21.10;94.10
37518;DHT22;23366;52.498;13.446;2023-08-08T13:06:15;21.10;94.50
37518;DHT22;23366;52.498;13.446;2023-08-08T13:08:40;21.10;98.10
37518;DHT22;23366;52.498;13.446;2023-08-08T13:11:06;21.00;98.70
37518;DHT22;23366;52.498;13.446;2023-08-08T13:13:31;21.00;98.90
37518;DHT22;23366;52.498;13.446;2023-08-08T13:15:57;21.00;97.70
37518;DHT22;23366;52.498;13.446;2023-08-08T13:18:22;21.20;98.00
37518;DHT22;23366;52.498;13.446;2023-08-08T13:20:48;21.30;96.70
37518;DHT22;23366;52.498;13.446;2023-08-08T13:23:13;21.30;96.10
37518;DHT22;23366;52.498;13.446;2023-08-08T13:25:39;21.20;95.60
37518;DHT22;23366;52.498;13.446;2023-08-08T13:28:06;21.30;95.00
37518;DHT22;23366;52.498;13.446;2023-08-08T13:30:32;21.20;94.80
37518;DHT22;23366;52.498;13.446;2023-08-08T13:32:58;21.30;94.90
37518;DHT22;23366;52.498;13.446;2023-08-08T13:35:24;21.20;94.40
37518;DHT22;23366;52.498;13.446;2023-08-08T13:37:49;21.20;93.80
37518;DHT22;23366;52.498;13.446;2023-08-08T13:40:17;21.10;93.20
37518;DHT22;23366;52.498;13.446;2023-08-08T13:42:43;21.00;93.00
37518;DHT22;23366;52.498;13.446;2023-08-08T13:45:16;21.00;92.90
37518;DHT22;23366;52.498;13.446;2023-08-08T13:47:42;20.80;98.10
37518;DHT22;23366;52.498;13.446;2023-08-08T13:50:08;20.10;99.90
37518;DHT22;23366;52.498;13.446;2023-08-08T13:52:33;19.50;99.90
37518;DHT22;23366;52.498;13.446;2023-08-08T13:54:59;19.10;99.90
37518;DHT22;23366;52.498;13.446;2023-08-08T13:57:25;18.70;99.90
37518;DHT22;23366;52.498;13.446;2023-08-08T13:59:50;18.40;99.90
37518;DHT22;23366;52.498;13.446;2023-08-08T14:02:16;18.30;99.90
37518;DHT22;23366;52.498;13.446;2023-08-08T14:04:46;18.20;99.90
37518;DHT22;23366;52.498;13.446;2023-08-08T14:07:12;18.30;99.90
37518;DHT22;23366;52.498;13.446;2023-08-08T14:09:37;18.30;99.90
37518;DHT22;23366;52.498;13.446;2023-08-08T14:12:03;18.40;99.90
37518;DHT22;23366;52.498;13.446;2023-08-08T14:14:29;18.50;99.90
37518;DHT22;23366;52.498;13.446;2023-08-08T14:16:54;18.60;99.90
37518;DHT22;23366;52.498;13.446;2023-08-08T14:19:20;18.70;99.90
37518;DHT22;23366;52.498;13.446;2023-08-08T14:21:45;18.70;99.90
37518;DHT22;23366;52.498;13.446;2023-08-08T14:24:11;18.70;99.90
37518;DHT22;23366;52.498;13.446;2023-08-08T14:26:36;18.60;99.90
37518;DHT22;23366;52.498;13.446;2023-08-08T14:29:02;18.50;99.90
37518;DHT22;23366;52.498;13.446;2023-08-08T14:31:27;18.50;99.90
37518;DHT22;23366;52.498;13.446;2023-08-08T14:33:53;18.40;99.90
37518;DHT22;23366;52.498;13.446;2023-08-08T14:36:18;18.40;99.90
37518;DHT22;23366;52.498;13.446;2023-08-08T14:38:44;18.40;99.90
37518;DHT22;23366;52.498;13.446;2023-08-08T14:41:09;18.40;99.90
37518;DHT22;23366;52.498;13.446;2023-08-08T14:43:35;18.40;99.90
37518;DHT22;23366;52.498;13.446;2023-08-08T14:46:00;18.40;99.90
37518;DHT22;23366;52.498;13.446;2023-08-08T14:48:26;18.40;99.90
37518;DHT22;23366;52.498;13.446;2023-08-08T14:50:52;18.50;99.90
37518;DHT22;23366;52.498;13.446;2023-08-08T14:53:18;18.50;99.90
37518;DHT22;23366;52.498;13.446;2023-08-08T14:55:43;18.60;99.90
37518;DHT22;23366;52.498;13.446;2023-08-08T14:58:09;18.70;99.90
37518;DHT22;23366;52.498;13.446;2023-08-08T15:00:34;18.70;99.90
37518;DHT22;23366;52.498;13.446;2023-08-08T15:02:59;18.80;99.90
37518;DHT22;23366;52.498;13.446;2023-08-08T15:05:25;18.90;99.90
37518;DHT22;23366;52.498;13.446;2023-08-08T15:07:50;18.90;99.90
37518;DHT22;23366;52.498;13.446;2023-08-08T15:10:16;19.00;99.90